Time;durP1;ratioP1;P1;durP2;ratioP2;P2;SDS_P1;SDS_P2;PMS_P1;PMS_P2;Temp;Humidity;BMP_temperature;BMP_pressure;BME280_temperature;BME280_humidity;BME280_pressure;Samples;Min_cycle;Max_cycle;Signal;HPM_P1;HPM_P2
2021/09/05 00:01:17;;;;;;;9.98;6.57;;;;;;;20.37;56.47;102112.66;5055483;28;20417;-81
2021/09/05 00:03:43;;;;;;;9.55;7.18;;;;;;;20.46;56.74;102128.47;5054357;28;20021;-80
2021/09/05 00:06:09;;;;;;;8.40;6.78;;;;;;;20.31;56.82;102102.94;5054515;28;20158;-81
2021/09/05 00:08:34;;;;;;;12.05;7.40;;;;;;;20.26;56.77;102094.13;5037303;28;20032;-82
2021/09/05 00:11:00;;;;;;;10.27;7.35;;;;;;;20.42;56.52;102118.81;5037654;28;20025;-80
2021/09/05 00:13:26;;;;;;;13.20;7.90;;;;;;;20.36;56.66;102100.38;5054127;28;20368;-82
2021/09/05 00:15:52;;;;;;;11.55;7.45;;;;;;;20.31;56.44;102102.94;5055360;28;20029;-80
2021/09/05 00:18:17;;;;;;;7.88;6.55;;;;;;;20.31;56.33;102097.69;5060674;28;20082;-80
2021/09/05 00:20:43;;;;;;;13.15;7.55;;;;;;;20.28;56.55;102102.91;5043537;28;20021;-79
2021/09/05 00:23:09;;;;;;;13.40;7.70;;;;;;;20.29;56.36;102102.91;5043968;28;20025;-83
2021/09/05 00:25:35;;;;;;;9.00;7.50;;;;;;;20.31;56.29;102103.81;5044372;28;20466;-82
2021/09/05 00:28:01;;;;;;;11.52;7.32;;;;;;;20.41;56.63;102119.66;5061000;28;20074;-82
2021/09/05 00:30:27;;;;;;;13.52;8.25;;;;;;;20.43;56.45;102131.06;5060996;28;20029;-81
2021/09/05 00:32:53;;;;;;;14.70;9.50;;;;;;;20.34;56.29;102110.84;5060869;28;20024;-81
2021/09/05 00:35:18;;;;;;;10.75;6.78;;;;;;;20.30;56.21;102107.31;5060311;28;20474;-81
2021/09/05 00:37:43;;;;;;;10.75;7.07;;;;;;;20.43;56.35;102124.06;5060600;28;20021;-82
2021/09/05 00:40:11;;;;;;;10.95;7.68;;;;;;;20.18;56.53;102086.19;5027308;28;20036;-80
2021/09/05 00:42:36;;;;;;;11.10;7.80;;;;;;;20.41;56.32;102127.56;5043185;28;20024;-79
2021/09/05 00:45:02;;;;;;;11.40;8.90;;;;;;;20.40;56.09;102124.03;5042832;28;20082;-80
2021/09/05 00:47:28;;;;;;;9.65;7.07;;;;;;;20.39;55.85;102122.28;5038696;28;20021;-81
2021/09/05 00:49:53;;;;;;;15.98;8.35;;;;;;;20.37;56.10;102120.53;5022399;28;20041;-80
2021/09/05 00:52:19;;;;;;;12.55;8.95;;;;;;;20.28;56.15;102106.41;5039143;28;20116;-80
2021/09/05 00:54:45;;;;;;;11.77;8.40;;;;;;;20.38;55.98;102124.94;5053333;28;20060;-81
2021/09/05 00:57:12;;;;;;;11.35;7.35;;;;;;;20.23;55.99;102099.38;5059423;28;20490;-82
2021/09/05 00:59:42;;;;;;;13.40;7.63;;;;;;;20.37;56.09;102123.16;5028570;28;20028;-81
2021/09/05 01:02:08;;;;;;;12.68;8.45;;;;;;;20.26;56.09;102107.25;5057512;28;20049;-81
2021/09/05 01:04:34;;;;;;;12.73;7.70;;;;;;;20.26;55.80;102108.13;5044567;28;20033;-82
2021/09/05 01:07:00;;;;;;;11.27;7.53;;;;;;;20.22;55.99;102101.13;5062178;28;20477;-83
2021/09/05 01:09:27;;;;;;;9.52;7.15;;;;;;;20.25;55.97;102106.38;5044119;28;20130;-82
2021/09/05 01:11:54;;;;;;;10.52;7.50;;;;;;;20.21;56.23;102112.50;5058833;28;20138;-81
2021/09/05 01:14:19;;;;;;;11.55;8.80;;;;;;;20.28;56.00;102111.66;5041952;28;20043;-82
2021/09/05 01:16:45;;;;;;;15.25;9.48;;;;;;;20.25;55.77;102101.13;5025645;28;20029;-80
2021/09/05 01:19:29;;;;;;;14.95;8.63;;;;;;;20.36;55.71;102119.66;5042729;28;20045;-80
2021/09/05 01:21:55;;;;;;;9.75;7.97;;;;;;;20.34;55.88;102110.84;5041706;28;20029;-80
2021/09/05 01:24:22;;;;;;;13.60;8.65;;;;;;;20.25;55.82;102101.13;5060544;28;20112;-81
2021/09/05 01:26:51;;;;;;;10.48;7.60;;;;;;;20.29;55.68;102110.78;5060938;28;20055;-80
2021/09/05 01:29:17;;;;;;;9.70;6.50;;;;;;;20.25;55.82;102113.41;5060347;28;20496;-83
2021/09/05 01:31:48;;;;;;;14.68;7.75;;;;;;;20.22;55.79;102105.50;5043816;28;20039;-80
2021/09/05 01:34:18;;;;;;;10.88;8.05;;;;;;;20.36;55.83;102135.41;5044267;28;20382;-80
2021/09/05 01:36:44;;;;;;;13.82;8.38;;;;;;;20.25;55.70;102116.03;5060891;28;20374;-81
2021/09/05 01:39:12;;;;;;;10.85;7.53;;;;;;;20.37;55.72;102131.94;5061499;28;20028;-81
2021/09/05 01:41:38;;;;;;;10.80;7.63;;;;;;;20.19;55.66;102102.84;5060567;28;20028;-81
2021/09/05 01:44:07;;;;;;;16.40;8.00;;;;;;;20.32;55.56;102130.97;5060577;28;20031;-82
2021/09/05 01:46:33;;;;;;;10.10;8.52;;;;;;;20.31;55.59;102131.84;5060133;28;20051;-81
2021/09/05 01:48:59;;;;;;;9.82;7.63;;;;;;;20.22;55.67;102116.88;5043794;28;20131;-83
2021/09/05 01:51:25;;;;;;;11.32;7.93;;;;;;;20.18;55.65;102115.09;5059850;28;20024;-81
2021/09/05 01:53:51;;;;;;;10.23;7.65;;;;;;;20.19;55.59;102116.84;5043267;28;20059;-80
2021/09/05 01:56:16;;;;;;;12.55;7.55;;;;;;;20.27;55.64;102128.28;5059368;28;20557;-81
2021/09/05 01:58:43;;;;;;;9.65;8.20;;;;;;;20.23;55.34;102123.03;5025895;28;20043;-80
2021/09/05 02:01:11;;;;;;;10.85;8.40;;;;;;;20.25;55.57;102137.06;5058700;28;20470;-83
2021/09/05 02:03:36;;;;;;;10.75;8.02;;;;;;;20.23;55.63;102131.78;5029481;28;20037;-81
2021/09/05 02:06:03;;;;;;;11.23;7.80;;;;;;;20.32;55.40;102149.34;5043984;28;20016;-80
2021/09/05 02:08:28;;;;;;;10.85;8.00;;;;;;;20.18;55.71;102130.84;5059219;28;20008;-80
2021/09/05 02:10:54;;;;;;;11.32;7.90;;;;;;;20.19;55.50;102126.47;5042644;28;20035;-80
2021/09/05 02:13:21;;;;;;;9.05;6.85;;;;;;;20.28;55.40;102137.94;5043042;28;20390;-81
2021/09/05 02:15:46;;;;;;;11.40;7.93;;;;;;;20.30;55.20;102137.94;5043205;28;20419;-81
2021/09/05 02:18:15;;;;;;;12.23;8.18;;;;;;;20.05;55.19;102097.47;5041946;28;20074;-82
2021/09/05 02:20:47;;;;;;;9.10;7.18;;;;;;;20.13;55.12;102118.53;5058878;28;20017;-84
2021/09/05 02:23:12;;;;;;;10.18;8.55;;;;;;;20.17;55.13;102128.22;5058620;28;20032;-80
2021/09/05 02:25:38;;;;;;;8.73;7.10;;;;;;;20.20;55.17;102130.88;5026509;28;20032;-80
2021/09/05 02:28:04;;;;;;;13.02;8.75;;;;;;;20.27;55.14;102149.31;5058602;28;20115;-80
2021/09/05 02:30:29;;;;;;;11.13;7.90;;;;;;;20.16;55.17;102131.69;5041919;28;20028;-81
2021/09/05 02:32:55;;;;;;;9.95;8.15;;;;;;;20.11;55.09;102122.91;5062135;28;20482;-81
2021/09/05 02:35:20;;;;;;;10.35;8.25;;;;;;;20.11;55.09;102123.81;5060352;28;20449;-80
2021/09/05 02:37:45;;;;;;;10.32;7.88;;;;;;;20.28;55.14;102164.19;5043443;28;20032;-80
2021/09/05 02:40:12;;;;;;;11.15;8.20;;;;;;;20.23;54.82;102139.66;5026053;28;20055;-81
2021/09/05 02:42:38;;;;;;;16.70;8.82;;;;;;;20.28;54.90;102156.31;5026651;28;20155;-79
2021/09/05 02:45:06;;;;;;;12.32;8.77;;;;;;;20.21;54.96;102141.41;5059818;28;20112;-80
2021/09/05 02:47:32;;;;;;;9.30;8.00;;;;;;;20.23;54.85;102144.91;5058963;28;20111;-80
2021/09/05 02:49:57;;;;;;;9.90;8.32;;;;;;;20.12;54.90;102117.69;5059377;28;20028;-80
2021/09/05 02:52:23;;;;;;;10.82;7.88;;;;;;;20.24;54.94;102145.78;5059364;28;20115;-81
2021/09/05 02:54:48;;;;;;;10.18;7.95;;;;;;;20.27;54.69;102156.31;5023019;28;20071;-80
2021/09/05 02:57:14;;;;;;;15.35;8.77;;;;;;;20.20;54.81;102138.75;5051865;28;20028;-80
2021/09/05 02:59:39;;;;;;;12.15;8.63;;;;;;;20.17;54.82;102138.72;5042524;28;20017;-80
2021/09/05 03:02:05;;;;;;;12.88;9.00;;;;;;;20.25;54.78;102156.28;5058878;28;20505;-81
2021/09/05 03:04:31;;;;;;;9.43;7.80;;;;;;;20.08;54.57;102118.50;5059494;28;20488;-80
2021/09/05 03:06:56;;;;;;;12.48;8.10;;;;;;;20.20;54.37;102146.63;5042080;28;20028;-81
2021/09/05 03:09:22;;;;;;;9.02;7.32;;;;;;;20.24;54.71;102154.56;5058157;28;20025;-80
2021/09/05 03:11:48;;;;;;;10.40;8.93;;;;;;;20.19;54.61;102145.75;5038385;28;20116;-80
2021/09/05 03:14:15;;;;;;;12.15;9.07;;;;;;;20.09;54.82;102122.91;5054257;28;20029;-80
2021/09/05 03:16:42;;;;;;;11.27;8.13;;;;;;;20.17;54.44;102142.22;5076205;28;20060;-80
2021/09/05 03:19:08;;;;;;;11.48;8.23;;;;;;;20.21;54.68;102143.13;5055288;28;20064;-82
2021/09/05 03:21:33;;;;;;;11.45;8.43;;;;;;;20.15;54.67;102133.44;5038630;28;20029;-81
2021/09/05 03:23:58;;;;;;;10.00;7.35;;;;;;;20.22;54.61;102148.41;5023213;28;20028;-84
2021/09/05 03:26:24;;;;;;;12.98;8.82;;;;;;;20.12;54.75;102124.69;5072626;28;20029;-80
2021/09/05 03:28:50;;;;;;;12.10;8.68;;;;;;;20.14;54.51;102139.56;5055032;28;20024;-79
2021/09/05 03:31:15;;;;;;;13.20;10.02;;;;;;;19.96;54.46;102103.53;5055673;28;20487;-83
2021/09/05 03:33:41;;;;;;;11.30;8.45;;;;;;;20.07;54.24;102124.63;5056191;28;20024;-81
2021/09/05 03:36:07;;;;;;;11.57;9.35;;;;;;;20.20;54.43;102152.75;5038160;28;20048;-81
2021/09/05 03:38:33;;;;;;;11.93;7.72;;;;;;;20.15;54.26;102136.06;5055445;28;20043;-81
2021/09/05 03:40:59;;;;;;;11.70;9.07;;;;;;;20.08;54.49;102128.13;5035474;28;20033;-80
2021/09/05 03:43:25;;;;;;;13.82;9.35;;;;;;;20.08;54.38;102125.50;5022513;28;20029;-80
2021/09/05 03:45:50;;;;;;;10.57;9.05;;;;;;;20.17;54.62;102144.84;5054560;28;20028;-82
2021/09/05 03:48:16;;;;;;;9.40;7.93;;;;;;;20.18;54.55;102145.72;5054470;28;20040;-82
2021/09/05 03:50:41;;;;;;;11.07;8.55;;;;;;;20.20;54.47;102149.25;5037578;28;20074;-80
2021/09/05 03:53:07;;;;;;;10.82;8.65;;;;;;;20.14;54.57;102136.94;5058067;28;20087;-79
2021/09/05 03:55:32;;;;;;;11.48;8.25;;;;;;;20.21;54.46;102151.91;5055221;28;20092;-80
2021/09/05 03:57:58;;;;;;;11.35;8.52;;;;;;;20.17;54.54;102143.97;5022428;28;20476;-81
2021/09/05 04:00:23;;;;;;;10.13;8.75;;;;;;;20.16;54.51;102139.56;5045873;28;20068;-80
2021/09/05 04:02:49;;;;;;;11.73;8.43;;;;;;;20.18;54.48;102141.34;5039024;28;20540;-79
2021/09/05 04:05:14;;;;;;;11.75;9.38;;;;;;;20.01;54.30;102116.69;5058623;28;20020;-81
2021/09/05 04:07:44;;;;;;;12.20;8.27;;;;;;;20.06;54.30;102122.88;5058528;28;20032;-81
2021/09/05 04:10:10;;;;;;;11.90;9.68;;;;;;;20.04;54.45;102121.97;5054810;28;20030;-81
2021/09/05 04:12:41;;;;;;;10.27;8.10;;;;;;;20.19;54.48;102152.75;5028031;28;20486;-83
2021/09/05 04:15:08;;;;;;;11.95;8.80;;;;;;;20.18;54.52;102148.34;5058287;28;20485;-81
2021/09/05 04:17:33;;;;;;;12.52;9.02;;;;;;;20.20;54.33;102146.63;5058203;28;20025;-83
2021/09/05 04:20:00;;;;;;;10.75;9.05;;;;;;;20.19;54.42;102152.75;5044335;28;20045;-88
2021/09/05 04:22:26;;;;;;;12.18;8.48;;;;;;;20.19;54.35;102150.13;5060802;28;20025;-80
2021/09/05 04:24:52;;;;;;;12.60;8.70;;;;;;;20.11;54.59;102138.69;5060462;28;20028;-81
2021/09/05 04:27:18;;;;;;;10.63;8.88;;;;;;;20.14;54.34;102143.94;5042889;28;20082;-81
2021/09/05 04:29:45;;;;;;;13.40;9.73;;;;;;;20.17;54.28;102146.59;5042276;28;20028;-80
2021/09/05 04:32:10;;;;;;;10.27;8.20;;;;;;;20.03;54.12;102130.72;5042503;28;20583;-85
2021/09/05 04:34:36;;;;;;;12.25;9.63;;;;;;;20.03;54.41;102124.56;5054570;28;20033;-79
2021/09/05 04:37:01;;;;;;;12.18;8.57;;;;;;;19.92;54.15;102109.63;5039122;28;20083;-85
2021/09/05 04:39:26;;;;;;;13.30;8.70;;;;;;;20.00;54.27;102128.06;5042129;28;20029;-80
2021/09/05 04:41:52;;;;;;;10.52;8.80;;;;;;;20.13;54.48;102153.56;5042240;28;20025;-84
2021/09/05 04:44:18;;;;;;;10.50;7.53;;;;;;;20.14;54.53;102150.06;5042066;28;20029;-80
2021/09/05 04:46:43;;;;;;;12.05;8.30;;;;;;;20.00;54.25;102130.69;5041542;28;20086;-81
2021/09/05 04:49:09;;;;;;;12.68;9.07;;;;;;;20.07;54.20;102155.25;5041219;28;20101;-85
2021/09/05 04:51:34;;;;;;;12.95;8.70;;;;;;;20.13;54.22;102166.69;5041117;28;20518;-82
2021/09/05 04:54:00;;;;;;;11.57;9.02;;;;;;;20.15;54.24;102172.84;5041714;28;20033;-81
2021/09/05 04:56:25;;;;;;;11.05;7.82;;;;;;;20.04;54.14;102142.97;5055299;28;20029;-82
2021/09/05 04:58:51;;;;;;;10.57;7.80;;;;;;;20.06;54.26;102156.13;5027740;28;20048;-80
2021/09/05 05:01:19;;;;;;;11.50;8.88;;;;;;;20.02;54.23;102149.06;5038375;28;20029;-82
2021/09/05 05:03:44;;;;;;;11.05;8.68;;;;;;;20.14;54.12;102170.19;5020912;28;20475;-80
2021/09/05 05:06:10;;;;;;;10.90;8.85;;;;;;;20.01;54.22;102152.56;5021292;28;20029;-81
2021/09/05 05:08:35;;;;;;;15.88;9.18;;;;;;;20.05;54.18;102159.63;5053787;28;20022;-83
2021/09/05 05:11:01;;;;;;;12.50;9.02;;;;;;;20.15;54.23;102180.72;5042114;28;20112;-80
2021/09/05 05:13:27;;;;;;;11.95;8.57;;;;;;;20.11;54.42;102171.06;5058008;28;20036;-80
2021/09/05 05:15:55;;;;;;;11.23;8.48;;;;;;;19.99;54.36;102166.56;5057095;28;20017;-80
2021/09/05 05:18:21;;;;;;;12.10;8.57;;;;;;;20.04;54.30;102171.88;5048608;28;20029;-80
2021/09/05 05:20:47;;;;;;;8.93;8.00;;;;;;;20.16;54.30;102186.84;5043284;28;20359;-83
2021/09/05 05:23:12;;;;;;;12.80;9.50;;;;;;;20.17;54.32;102189.50;5043790;28;20094;-81
2021/09/05 05:25:38;;;;;;;10.93;8.32;;;;;;;20.11;54.54;102173.69;5060787;28;20531;-86
2021/09/05 05:28:03;;;;;;;10.20;8.60;;;;;;;20.05;54.48;102170.13;5044389;28;20024;-85
2021/09/05 05:30:29;;;;;;;13.00;9.40;;;;;;;20.09;54.23;102179.78;5060646;28;20021;-84
2021/09/05 05:32:57;;;;;;;14.05;8.65;;;;;;;20.07;54.55;102179.78;5078038;28;20435;-80
2021/09/05 05:35:22;;;;;;;13.20;9.20;;;;;;;20.05;54.61;102172.75;5043360;28;20051;-81
2021/09/05 05:37:48;;;;;;;11.13;8.57;;;;;;;20.05;54.45;102176.25;5043074;28;20024;-80
2021/09/05 05:40:13;;;;;;;12.32;8.57;;;;;;;20.18;55.05;102190.38;5055603;28;20056;-80
2021/09/05 05:42:39;;;;;;;10.57;8.27;;;;;;;20.07;54.70;102177.16;5025090;28;20039;-80
2021/09/05 05:45:05;;;;;;;10.73;8.15;;;;;;;20.14;54.87;102193.84;5025801;28;20497;-80
2021/09/05 05:47:30;;;;;;;12.30;8.55;;;;;;;20.21;54.94;102209.69;5026551;28;20510;-79
2021/09/05 05:49:56;;;;;;;15.25;9.05;;;;;;;20.16;55.08;102194.72;5059692;28;20033;-79
2021/09/05 05:52:21;;;;;;;15.55;9.90;;;;;;;20.14;54.89;102183.31;5075748;28;20024;-80
2021/09/05 05:54:46;;;;;;;17.38;10.48;;;;;;;20.22;55.27;102200.94;5058400;28;20032;-77
2021/09/05 05:57:12;;;;;;;16.05;9.35;;;;;;;20.24;55.81;102198.34;5041659;28;20069;-78
2021/09/05 05:59:38;;;;;;;21.35;10.57;;;;;;;20.30;55.77;102212.38;5024554;28;20024;-80
2021/09/05 06:02:04;;;;;;;19.42;10.38;;;;;;;20.23;56.08;102196.56;5058263;28;20020;-80
2021/09/05 06:04:29;;;;;;;23.17;12.02;;;;;;;20.29;55.74;102200.13;5072526;28;20543;-82
2021/09/05 06:06:54;;;;;;;17.73;11.63;;;;;;;20.28;56.80;102193.09;5025777;28;20032;-82
2021/09/05 06:09:20;;;;;;;18.50;11.57;;;;;;;20.31;56.53;102202.75;5026576;28;20525;-89
2021/09/05 06:11:45;;;;;;;15.48;10.98;;;;;;;20.27;56.98;102190.44;5043733;28;20052;-81
2021/09/05 06:14:11;;;;;;;19.58;10.77;;;;;;;20.35;56.96;102212.44;5059378;28;20027;-78
2021/09/05 06:16:37;;;;;;;16.75;10.48;;;;;;;20.56;56.21;102201.25;5061066;28;20028;-79
2021/09/05 06:19:02;;;;;;;18.77;9.98;;;;;;;20.96;54.84;102210.31;5060105;28;20502;-78
2021/09/05 06:21:28;;;;;;;19.08;10.63;;;;;;;20.70;55.57;102210.13;5027720;28;20074;-79
2021/09/05 06:23:53;;;;;;;19.63;10.65;;;;;;;20.57;55.92;102211.78;5043614;28;20470;-80
2021/09/05 06:26:19;;;;;;;18.00;10.05;;;;;;;20.55;56.14;102215.25;5059604;28;20025;-76
2021/09/05 06:28:46;;;;;;;16.33;11.32;;;;;;;20.56;56.28;102217.03;5042992;28;20032;-79
2021/09/05 06:31:12;;;;;;;23.38;9.80;;;;;;;20.57;56.12;102211.78;5059939;28;20384;-80
2021/09/05 06:33:37;;;;;;;18.17;10.50;;;;;;;20.52;56.38;102199.47;5059981;28;20028;-81
2021/09/05 06:36:03;;;;;;;15.90;10.25;;;;;;;19.36;56.51;102218.28;5043037;28;20024;-81
2021/09/05 06:38:28;;;;;;;17.75;10.15;;;;;;;18.44;58.93;102216.84;5026887;28;20120;-80
2021/09/05 06:40:54;;;;;;;14.75;9.90;;;;;;;18.12;60.02;102218.91;5043708;28;20224;-81
2021/09/05 06:43:19;;;;;;;14.23;10.82;;;;;;;17.73;60.60;102197.22;5027325;28;20124;-79
2021/09/05 06:45:45;;;;;;;15.68;9.23;;;;;;;17.73;60.97;102218.16;5042566;28;20032;-80
2021/09/05 06:48:10;;;;;;;18.63;12.25;;;;;;;17.66;61.17;102232.81;5026006;28;20027;-80
2021/09/05 06:50:36;;;;;;;15.98;10.77;;;;;;;17.52;61.50;102223.81;5041535;28;20382;-81
2021/09/05 06:53:01;;;;;;;14.90;11.52;;;;;;;17.59;61.42;102219.56;5024422;28;20037;-79
2021/09/05 06:55:27;;;;;;;16.98;12.00;;;;;;;17.78;60.88;102232.22;5041063;28;20024;-81
2021/09/05 06:57:53;;;;;;;16.67;11.38;;;;;;;17.92;60.86;102240.31;5024951;28;20028;-80
2021/09/05 07:00:18;;;;;;;16.10;9.80;;;;;;;18.39;59.54;102234.25;5039857;28;20573;-83
2021/09/05 07:02:44;;;;;;;14.02;9.85;;;;;;;19.05;58.14;102244.09;5056477;28;20086;-79
2021/09/05 07:05:11;;;;;;;12.07;8.70;;;;;;;19.36;58.31;102250.63;5035562;28;20119;-79
2021/09/05 07:07:36;;;;;;;15.70;11.75;;;;;;;19.52;57.22;102243.88;5056759;28;20035;-81
2021/09/05 07:10:02;;;;;;;12.45;8.30;;;;;;;19.61;57.35;102230.88;5056335;28;20033;-80
2021/09/05 07:12:27;;;;;;;14.18;8.00;;;;;;;19.75;56.77;102239.81;5056554;28;20038;-80
2021/09/05 07:14:52;;;;;;;13.10;7.70;;;;;;;19.96;57.05;102249.69;5023590;28;20029;-79
2021/09/05 07:17:18;;;;;;;9.50;7.68;;;;;;;20.03;56.99;102241.00;5053148;28;20021;-81
2021/09/05 07:19:43;;;;;;;16.80;9.77;;;;;;;19.76;55.83;102235.44;5037216;28;20167;-83
2021/09/05 07:22:09;;;;;;;17.05;11.25;;;;;;;19.35;57.06;102241.00;5040906;28;20031;-86
2021/09/05 07:24:34;;;;;;;15.15;9.45;;;;;;;19.27;57.45;102259.25;5039525;28;20470;-73
2021/09/05 07:26:59;;;;;;;15.98;11.70;;;;;;;19.07;57.87;102249.34;5044687;28;20474;-73
2021/09/05 07:29:25;;;;;;;16.27;11.52;;;;;;;19.05;57.95;102258.94;5061237;28;20089;-82
2021/09/05 07:31:50;;;;;;;15.57;10.90;;;;;;;18.88;58.13;102256.94;5044353;28;20024;-82
2021/09/05 07:34:16;;;;;;;17.10;11.63;;;;;;;18.93;58.51;102251.78;5043858;28;20024;-80
2021/09/05 07:36:41;;;;;;;20.17;12.88;;;;;;;19.03;58.17;102266.78;5043497;28;20028;-81
2021/09/05 07:39:11;;;;;;;14.73;10.60;;;;;;;19.22;57.91;102267.91;5060355;28;20024;-81
2021/09/05 07:41:36;;;;;;;18.45;11.85;;;;;;;19.17;58.00;102267.88;5061386;28;20119;-83
2021/09/05 07:44:01;;;;;;;17.85;11.70;;;;;;;19.12;58.21;102260.78;5061780;28;20474;-81
2021/09/05 07:46:30;;;;;;;17.40;13.90;;;;;;;18.99;58.39;102254.47;5044493;28;20024;-82
2021/09/05 07:48:55;;;;;;;22.10;12.77;;;;;;;19.10;58.30;102265.09;5045160;28;20029;-80
2021/09/05 07:51:24;;;;;;;17.48;12.90;;;;;;;19.13;58.33;102259.91;5044082;28;20024;-84
2021/09/05 07:53:51;;;;;;;19.00;11.15;;;;;;;19.26;57.81;102264.50;5029425;28;20593;-85
2021/09/05 07:56:17;;;;;;;18.13;11.07;;;;;;;19.56;57.07;102267.56;5066592;28;20096;-87
2021/09/05 07:58:42;;;;;;;16.38;9.85;;;;;;;19.74;57.40;102266.03;5052192;28;20024;-86
2021/09/05 08:01:07;;;;;;;12.68;9.35;;;;;;;19.93;56.71;102271.53;5030844;28;20093;-83
2021/09/05 08:03:37;;;;;;;13.60;9.38;;;;;;;20.00;57.50;102280.34;5046384;28;20366;-84
2021/09/05 08:06:03;;;;;;;12.82;9.15;;;;;;;20.02;57.82;102280.38;5031320;28;20020;-85
2021/09/05 08:08:28;;;;;;;13.65;8.82;;;;;;;20.10;57.24;102279.63;5030778;28;20040;-85
2021/09/05 08:10:53;;;;;;;10.98;8.45;;;;;;;20.20;57.03;102289.34;5030420;28;20115;-87
2021/09/05 08:13:19;;;;;;;14.82;9.70;;;;;;;19.89;56.06;102266.22;5048744;28;20039;-92
2021/09/05 08:15:45;;;;;;;14.73;8.93;;;;;;;19.96;55.91;102265.44;5063011;28;20047;-81
2021/09/05 08:18:10;;;;;;;15.18;9.18;;;;;;;20.09;56.75;102282.22;5061322;28;20122;-82
2021/09/05 08:20:36;;;;;;;17.00;11.65;;;;;;;19.71;55.28;102298.38;5043589;28;20066;-80
2021/09/05 08:23:02;;;;;;;16.05;12.30;;;;;;;19.43;55.15;102273.47;5045086;28;20032;-79
2021/09/05 08:25:27;;;;;;;21.95;12.02;;;;;;;19.50;55.23;102291.09;5044466;28;20035;-80
2021/09/05 08:27:53;;;;;;;18.67;12.45;;;;;;;19.56;54.98;102290.31;5044046;28;20425;-80
2021/09/05 08:30:18;;;;;;;19.10;12.20;;;;;;;19.51;54.96;102292.84;5044249;28;20509;-83
2021/09/05 08:32:44;;;;;;;14.55;10.80;;;;;;;19.35;55.05;102275.09;5043675;28;20029;-81
2021/09/05 08:35:09;;;;;;;12.68;9.50;;;;;;;19.62;54.94;102301.75;5044080;28;20036;-78
2021/09/05 08:37:35;;;;;;;15.18;9.60;;;;;;;19.85;55.70;102290.69;5059435;28;20052;-79
2021/09/05 08:40:00;;;;;;;13.40;8.50;;;;;;;19.90;54.44;102275.84;5060403;28;20401;-80
2021/09/05 08:42:30;;;;;;;14.35;9.88;;;;;;;20.08;54.83;102285.69;5060140;28;20366;-81
2021/09/05 08:44:55;;;;;;;12.38;8.32;;;;;;;20.06;55.26;102282.19;5059534;28;20127;-79
2021/09/05 08:47:21;;;;;;;13.68;8.95;;;;;;;20.13;55.49;102282.25;5059105;28;20526;-82
2021/09/05 08:49:48;;;;;;;9.90;8.45;;;;;;;20.13;55.39;102274.38;5042543;28;20025;-83
2021/09/05 08:52:14;;;;;;;14.23;6.95;;;;;;;20.22;55.07;102286.75;5076004;28;20111;-80
2021/09/05 08:54:40;;;;;;;14.95;8.57;;;;;;;20.26;54.12;102294.66;5059088;28;20101;-82
2021/09/05 08:57:06;;;;;;;9.80;7.57;;;;;;;20.34;54.63;102306.13;5059570;28;20107;-80
2021/09/05 08:59:31;;;;;;;12.77;7.63;;;;;;;20.27;54.29;102287.66;5042521;28;20478;-79
2021/09/05 09:02:00;;;;;;;10.38;6.57;;;;;;;20.38;54.64;102293.97;5058935;28;19908;-79
2021/09/05 09:04:34;;;;;;;11.52;7.75;;;;;;;20.29;53.87;102278.94;5058421;28;20478;-79
2021/09/05 09:07:07;;;;;;;11.13;7.35;;;;;;;20.33;54.48;102291.25;5058784;28;20033;-80
2021/09/05 09:09:33;;;;;;;9.75;6.75;;;;;;;20.41;54.46;102299.22;5058387;28;20493;-80
2021/09/05 09:12:00;;;;;;;10.18;7.63;;;;;;;20.46;54.36;102308.03;5058633;28;20032;-79
2021/09/05 09:14:58;;;;;;;9.50;7.18;;;;;;;20.55;54.69;102307.25;5042294;28;20035;-82
2021/09/05 09:17:23;;;;;;;9.25;6.53;;;;;;;20.46;54.31;102294.03;5025689;28;20116;-79
2021/09/05 09:19:48;;;;;;;11.02;7.68;;;;;;;20.41;53.35;102290.44;5058014;28;20150;-80
2021/09/05 09:22:19;;;;;;;12.15;8.43;;;;;;;20.52;53.14;102309.84;5041126;28;20098;-81
2021/09/05 09:24:45;;;;;;;12.68;8.82;;;;;;;20.40;52.89;102286.06;5058210;28;20025;-79
2021/09/05 09:27:11;;;;;;;9.68;7.70;;;;;;;20.50;53.25;102306.34;5058143;28;20033;-78
2021/09/05 09:29:38;;;;;;;13.60;8.73;;;;;;;20.56;52.97;102307.25;5037363;28;20497;-85
2021/09/05 09:32:18;;;;;;;12.07;9.13;;;;;;;20.55;53.26;102308.13;5037915;28;20043;-79
2021/09/05 09:34:46;;;;;;;10.45;7.80;;;;;;;20.60;52.95;102314.31;5037982;28;20020;-80
2021/09/05 09:37:23;;;;;;;9.80;7.97;;;;;;;20.56;52.88;102309.00;5037408;28;20032;-78
2021/09/05 09:39:59;;;;;;;10.55;7.18;;;;;;;20.54;52.94;102301.09;5038122;28;20434;-79
2021/09/05 09:42:37;;;;;;;12.65;8.63;;;;;;;20.61;52.95;102309.94;5038713;28;20021;-81
2021/09/05 09:45:09;;;;;;;10.35;7.43;;;;;;;20.61;52.77;102309.94;5040180;28;20083;-80
2021/09/05 09:47:47;;;;;;;11.98;8.75;;;;;;;20.59;52.95;102304.66;5042378;28;20024;-82
2021/09/05 09:50:14;;;;;;;11.57;7.85;;;;;;;20.62;52.76;102314.34;5040217;28;20106;-80
2021/09/05 09:52:40;;;;;;;9.75;7.13;;;;;;;20.54;52.95;102298.47;5041667;28;20029;-81
2021/09/05 09:55:06;;;;;;;9.70;6.80;;;;;;;20.60;52.90;102301.19;5041018;28;20025;-79
2021/09/05 09:57:31;;;;;;;9.90;7.47;;;;;;;20.64;53.00;102304.72;5024749;28;20021;-80
2021/09/05 09:59:57;;;;;;;9.40;7.25;;;;;;;20.49;52.82;102276.53;5025121;28;20036;-79
2021/09/05 10:02:25;;;;;;;9.63;7.80;;;;;;;20.47;52.93;102272.13;5042201;28;20028;-79
2021/09/05 10:04:53;;;;;;;10.50;7.75;;;;;;;20.59;52.80;102295.91;5041430;28;20479;-80
2021/09/05 10:07:22;;;;;;;10.07;8.95;;;;;;;20.53;52.83;102277.44;5041165;28;20459;-79
2021/09/05 10:09:49;;;;;;;13.57;9.00;;;;;;;20.51;52.63;102277.41;5040500;28;20360;-79
2021/09/05 10:12:17;;;;;;;10.95;8.70;;;;;;;20.51;52.61;102276.56;5023609;28;20431;-79
2021/09/05 10:14:53;;;;;;;8.93;8.02;;;;;;;20.57;53.05;102285.38;5041042;28;20471;-80
2021/09/05 10:17:21;;;;;;;9.80;8.05;;;;;;;20.63;52.73;102302.97;5023639;28;20471;-80
2021/09/05 10:19:48;;;;;;;12.32;8.60;;;;;;;20.56;52.72;102290.59;5039502;28;20056;-80
2021/09/05 10:22:17;;;;;;;9.55;8.15;;;;;;;20.50;52.70;102277.44;5023655;28;20471;-79
2021/09/05 10:24:53;;;;;;;9.82;7.47;;;;;;;20.50;52.82;102272.19;5040028;28;20040;-79
2021/09/05 10:27:33;;;;;;;10.20;7.32;;;;;;;20.53;52.57;102280.06;5023957;28;20036;-78
2021/09/05 10:30:08;;;;;;;12.63;8.10;;;;;;;20.64;52.76;102294.22;5040046;28;20100;-81
2021/09/05 10:32:49;;;;;;;9.85;7.20;;;;;;;20.64;52.86;102295.06;5039092;28;20032;-79
2021/09/05 10:35:30;;;;;;;9.18;7.68;;;;;;;20.64;52.83;102292.44;5058037;28;20106;-80
2021/09/05 10:38:18;;;;;;;9.38;7.75;;;;;;;20.54;52.68;102287.97;5038665;28;20110;-80
2021/09/05 10:41:03;;;;;;;10.57;8.30;;;;;;;20.55;52.79;102283.59;5038690;28;20111;-81
2021/09/05 10:43:47;;;;;;;10.02;7.30;;;;;;;20.66;52.74;102297.72;5039362;28;20083;-79
2021/09/05 10:46:13;;;;;;;;;;;;;;;20.66;52.82;102301.22;5040355;28;20029;-81
2021/09/05 10:49:00;;;;;;;10.07;7.88;;;;;;;20.53;52.66;102286.19;5058378;28;19909;-80
2021/09/05 10:51:33;;;;;;;9.68;6.82;;;;;;;20.47;52.57;102269.50;5038210;28;20489;-80
2021/09/05 10:54:02;;;;;;;11.27;7.38;;;;;;;20.56;52.81;102285.34;5039074;28;20029;-79
2021/09/05 10:56:44;;;;;;;13.40;8.97;;;;;;;20.49;51.32;102296.69;5039484;28;20025;-80
2021/09/05 10:59:19;;;;;;;12.75;9.45;;;;;;;20.13;51.20;102292.75;5040592;28;20054;-73
2021/09/05 11:01:50;;;;;;;13.63;9.18;;;;;;;20.04;51.05;102295.28;5038394;28;20043;-73
2021/09/05 11:04:17;;;;;;;18.35;9.43;;;;;;;20.04;50.61;102304.91;5038206;28;20033;-73
2021/09/05 11:06:47;;;;;;;13.93;8.95;;;;;;;19.86;51.17;102285.44;5038073;28;20158;-75
2021/09/05 11:09:25;;;;;;;13.00;9.60;;;;;;;19.96;51.15;102291.69;5069068;28;20029;-73
2021/09/05 11:11:57;;;;;;;15.55;9.60;;;;;;;19.94;50.96;102290.78;5058535;28;20444;-74
2021/09/05 11:14:35;;;;;;;12.15;8.75;;;;;;;19.98;50.89;102303.09;5058211;28;20064;-80
2021/09/05 11:17:17;;;;;;;14.18;8.45;;;;;;;19.90;51.04;102292.50;5058039;28;20037;-81